Time;durP1;ratioP1;P1;durP2;ratioP2;P2;SDS_P1;SDS_P2;PMS_P1;PMS_P2;Temp;Humidity;BMP_temperature;BMP_pressure;BME280_temperature;BME280_humidity;BME280_pressure;Samples;Min_cycle;Max_cycle;Signal;HPM_P1;HPM_P2
2023/03/23 00:02:25;;;;;;;12.60;5.07;;;;;;;14.25;100.00;100044.16;5001364;28;20417;-77
2023/03/23 00:04:51;;;;;;;1.05;1.00;;;;;;;14.58;100.00;100037.28;5001019;28;20056;-79
2023/03/23 00:07:21;;;;;;;14.02;4.45;;;;;;;14.76;100.00;100034.78;5001073;28;20053;-74
2023/03/23 00:09:52;;;;;;;9.88;3.15;;;;;;;14.69;100.00;100030.19;4997697;28;20129;-76
2023/03/23 00:12:19;;;;;;;3.00;1.75;;;;;;;14.64;100.00;100033.50;5004052;28;20588;-75
2023/03/23 00:14:47;;;;;;;8.93;3.30;;;;;;;14.64;100.00;100027.94;4990213;28;20045;-75
2023/03/23 00:17:14;;;;;;;5.10;1.83;;;;;;;14.73;100.00;100030.88;5003387;28;20408;-76
2023/03/23 00:19:46;;;;;;;10.73;4.10;;;;;;;14.85;100.00;100027.31;5002871;28;20053;-77
2023/03/23 00:22:13;;;;;;;11.80;3.80;;;;;;;14.87;100.00;100016.53;5001985;28;20050;-78
2023/03/23 00:24:39;;;;;;;9.02;2.45;;;;;;;14.67;100.00;100015.13;5005144;28;20061;-72
2023/03/23 00:27:05;;;;;;;9.60;3.67;;;;;;;14.81;100.00;100014.72;5006111;28;20077;-77
2023/03/23 00:29:31;;;;;;;8.02;2.58;;;;;;;14.63;100.00;100001.34;5003058;28;20058;-74
2023/03/23 00:31:57;;;;;;;5.07;2.15;;;;;;;13.35;100.00;99987.63;5004578;28;20188;-74
2023/03/23 00:34:24;;;;;;;2.35;1.38;;;;;;;13.30;100.00;100004.03;5016251;28;20155;-75
2023/03/23 00:36:53;;;;;;;6.93;2.15;;;;;;;13.31;100.00;100006.38;5005776;28;20120;-79
2023/03/23 00:39:19;;;;;;;14.73;3.65;;;;;;;13.40;100.00;99995.44;5003470;28;20084;-73
2023/03/23 00:41:45;;;;;;;11.10;4.22;;;;;;;13.69;100.00;99985.19;4992831;28;20709;-74
2023/03/23 00:44:16;;;;;;;7.57;2.55;;;;;;;13.76;100.00;99998.91;5001450;28;20120;-75
2023/03/23 00:46:48;;;;;;;7.90;3.25;;;;;;;13.76;100.00;99987.00;5001950;28;20053;-75
2023/03/23 00:49:19;;;;;;;0.75;0.75;;;;;;;13.60;100.00;99996.13;5003401;28;20057;-75
2023/03/23 00:51:45;;;;;;;5.03;2.10;;;;;;;14.48;100.00;99999.41;5003431;28;20064;-76
2023/03/23 00:54:11;;;;;;;1.10;0.85;;;;;;;14.95;100.00;99998.38;5004925;28;20046;-77
2023/03/23 00:56:39;;;;;;;1.00;0.90;;;;;;;14.88;100.00;100004.16;5003935;28;20427;-76
2023/03/23 00:59:05;;;;;;;4.95;2.70;;;;;;;14.17;100.00;99995.47;4997458;28;20819;-77
2023/03/23 01:01:30;;;;;;;2.92;1.73;;;;;;;13.98;100.00;99997.16;4999783;28;20107;-74
2023/03/23 01:04:00;;;;;;;7.07;2.53;;;;;;;13.77;100.00;99980.25;4988773;28;20056;-73
2023/03/23 01:06:27;;;;;;;7.65;2.22;;;;;;;13.75;100.00;99977.09;5005572;28;20054;-76
2023/03/23 01:08:54;;;;;;;7.22;2.58;;;;;;;13.63;100.00;99980.59;5002814;28;20072;-75
2023/03/23 01:11:20;;;;;;;3.80;1.45;;;;;;;13.60;100.00;99987.03;5005063;28;20912;-74
2023/03/23 01:13:45;;;;;;;5.55;2.17;;;;;;;13.74;100.00;99997.78;5004491;28;20103;-73
2023/03/23 01:16:12;;;;;;;4.63;2.15;;;;;;;13.73;100.00;99988.66;5003880;28;20522;-75
2023/03/23 01:18:38;;;;;;;3.85;1.75;;;;;;;13.87;100.00;99996.63;5003873;28;20145;-74
2023/03/23 01:21:06;;;;;;;6.47;2.13;;;;;;;14.32;100.00;99996.66;5005160;28;20061;-77
2023/03/23 01:23:33;;;;;;;7.70;2.22;;;;;;;14.46;100.00;100005.41;4984818;28;20165;-75
2023/03/23 01:26:03;;;;;;;6.00;2.03;;;;;;;14.30;100.00;99999.09;5004679;28;20046;-80
2023/03/23 01:28:29;;;;;;;4.22;2.50;;;;;;;14.10;100.00;99988.06;5001574;28;20034;-76
2023/03/23 01:31:19;;;;;;;5.53;1.73;;;;;;;13.93;100.00;99994.09;5004942;28;20077;-73
2023/03/23 01:33:45;;;;;;;4.63;1.80;;;;;;;14.56;100.00;99990.41;4996093;28;20088;-73
2023/03/23 01:36:14;;;;;;;5.97;2.83;;;;;;;14.83;100.00;99979.66;5003992;28;20082;-73
2023/03/23 01:38:41;;;;;;;7.38;2.72;;;;;;;14.12;100.00;99980.09;5001141;28;20050;-73
2023/03/23 01:41:06;;;;;;;4.43;1.70;;;;;;;13.86;100.00;99964.50;5003068;28;20053;-75
2023/03/23 01:43:32;;;;;;;5.50;2.05;;;;;;;14.48;100.00;99952.06;5003411;28;20053;-77
2023/03/23 01:45:57;;;;;;;6.45;3.00;;;;;;;14.00;100.00;99893.81;5001854;28;20057;-74
2023/03/23 01:48:38;;;;;;;5.45;2.35;;;;;;;13.99;100.00;99926.41;5003388;28;20050;-76
2023/03/23 01:51:09;;;;;;;3.85;1.75;;;;;;;13.95;100.00;99934.06;5005845;28;20738;-74
2023/03/23 01:53:40;;;;;;;6.25;2.65;;;;;;;14.23;100.00;99922.16;4987975;28;20455;-78
2023/03/23 01:56:08;;;;;;;7.13;1.55;;;;;;;14.20;100.00;99919.44;4999721;28;20151;-70
2023/03/23 01:58:38;;;;;;;4.22;1.73;;;;;;;14.25;100.00;99922.53;5000077;28;20129;-73
2023/03/23 02:01:07;;;;;;;3.00;1.67;;;;;;;14.08;100.00;99914.63;5004426;28;20060;-76
2023/03/23 02:03:35;;;;;;;4.43;1.80;;;;;;;13.98;100.00;99916.50;5000221;28;20936;-74
2023/03/23 02:06:02;;;;;;;7.20;1.75;;;;;;;14.60;100.00;99917.91;4998501;28;20132;-73
2023/03/23 02:08:32;;;;;;;9.23;2.25;;;;;;;14.04;100.00;99919.53;5002002;28;20046;-73
2023/03/23 02:10:58;;;;;;;3.53;1.50;;;;;;;14.15;100.00;99906.09;5003373;28;20049;-78
2023/03/23 02:13:24;;;;;;;4.82;2.40;;;;;;;14.82;100.00;99933.50;5003669;28;20060;-74
2023/03/23 02:16:08;;;;;;;2.17;1.25;;;;;;;14.60;100.00;99932.63;4998981;28;20115;-75
2023/03/23 02:18:38;;;;;;;6.10;2.05;;;;;;;14.97;100.00;99928.28;5002966;28;20046;-74
2023/03/23 02:21:10;;;;;;;3.75;2.03;;;;;;;15.04;100.00;99934.44;5002288;28;20430;-75
2023/03/23 02:24:04;;;;;;;1.83;0.95;;;;;;;14.24;100.00;99937.63;5002520;28;20073;-74
2023/03/23 02:26:38;;;;;;;7.22;2.22;;;;;;;14.98;100.00;99927.84;5000347;28;20042;-77
2023/03/23 02:29:40;;;;;;;2.78;1.27;;;;;;;14.91;100.00;99936.44;5003918;28;20129;-74
2023/03/23 02:32:40;;;;;;;4.95;2.67;;;;;;;15.04;100.00;99923.28;4993488;28;20054;-76
2023/03/23 02:35:22;;;;;;;2.92;1.77;;;;;;;14.15;100.00;99931.13;5002374;28;20061;-75
2023/03/23 02:37:59;;;;;;;4.35;1.95;;;;;;;14.76;100.00;99917.81;5000635;28;20053;-78
2023/03/23 02:40:32;;;;;;;6.25;2.40;;;;;;;13.87;100.00;99904.88;5001246;28;20066;-76
2023/03/23 02:42:58;;;;;;;2.55;1.38;;;;;;;13.92;100.00;99912.69;5001826;28;20136;-75
2023/03/23 02:45:28;;;;;;;5.45;2.00;;;;;;;14.93;100.00;99914.50;5002392;28;20108;-80
2023/03/23 02:47:55;;;;;;;1.15;0.80;;;;;;;15.04;100.00;99917.72;4981243;28;20061;-75
2023/03/23 02:50:26;;;;;;;6.38;2.90;;;;;;;14.73;100.00;99902.78;4996110;28;20069;-77
2023/03/23 02:52:54;;;;;;;4.55;1.30;;;;;;;14.88;100.00;99889.97;4999043;28;20053;-75
2023/03/23 02:55:24;;;;;;;5.30;2.80;;;;;;;15.26;100.00;99868.41;5005785;28;20067;-73
2023/03/23 02:57:52;;;;;;;2.45;1.30;;;;;;;15.02;100.00;99870.00;5003988;28;20049;-75
2023/03/23 03:00:18;;;;;;;4.90;1.90;;;;;;;15.17;100.00;99881.47;5006945;28;20050;-75
2023/03/23 03:02:52;;;;;;;3.08;1.55;;;;;;;15.16;100.00;99897.41;5005145;28;20073;-77
2023/03/23 03:05:38;;;;;;;6.75;2.63;;;;;;;14.33;100.00;99896.03;5005949;28;20046;-76
2023/03/23 03:08:36;;;;;;;4.20;1.50;;;;;;;15.09;100.00;99896.88;5006885;28;20270;-74
2023/03/23 03:11:08;;;;;;;5.28;1.92;;;;;;;15.07;100.00;99899.31;4984192;28;20061;-74
2023/03/23 03:13:40;;;;;;;4.60;1.35;;;;;;;15.12;100.00;99891.16;5006384;28;20053;-73
2023/03/23 03:16:27;;;;;;;4.15;1.60;;;;;;;14.95;100.00;99892.53;5004494;28;20062;-74
2023/03/23 03:19:07;;;;;;;6.88;3.03;;;;;;;15.01;100.00;99893.53;5005424;28;20823;-74
2023/03/23 03:21:37;;;;;;;4.43;1.25;;;;;;;13.95;100.00;99884.00;5008563;28;20784;-73
2023/03/23 03:24:07;;;;;;;6.47;2.55;;;;;;;14.27;100.00;99885.88;5006723;28;20057;-74
2023/03/23 03:26:35;;;;;;;2.42;1.58;;;;;;;14.46;100.00;99887.72;5005219;28;20120;-76
2023/03/23 03:29:01;;;;;;;2.20;1.17;;;;;;;13.95;100.00;99892.34;5006251;28;20045;-72
2023/03/23 03:31:37;;;;;;;3.97;2.15;;;;;;;14.23;100.00;99885.22;5005794;28;20073;-73
2023/03/23 03:34:03;;;;;;;3.50;1.50;;;;;;;13.92;100.00;99876.53;5005490;28;20057;-75
2023/03/23 03:36:34;;;;;;;4.70;1.73;;;;;;;14.67;100.00;99879.50;5016462;28;20050;-74
2023/03/23 03:39:06;;;;;;;7.88;3.08;;;;;;;15.19;100.00;99873.47;5005320;28;20046;-75
2023/03/23 03:41:31;;;;;;;5.40;1.77;;;;;;;15.07;100.00;99883.38;4998523;28;20057;-75
2023/03/23 03:43:57;;;;;;;6.88;1.75;;;;;;;15.38;100.00;99876.00;5005593;28;20049;-75
2023/03/23 03:46:26;;;;;;;3.00;1.40;;;;;;;15.34;100.00;99882.91;5005114;28;20129;-74
2023/03/23 03:48:52;;;;;;;6.65;2.25;;;;;;;15.26;100.00;99889.94;5009709;28;20049;-76
2023/03/23 03:51:18;;;;;;;3.90;1.50;;;;;;;14.98;100.00;99882.50;5008402;28;20058;-75
2023/03/23 03:53:43;;;;;;;4.35;2.35;;;;;;;15.43;100.00;99867.06;4994917;28;20054;-73
2023/03/23 03:56:09;;;;;;;4.78;1.73;;;;;;;15.48;100.00;99872.06;5015910;28;20127;-73
2023/03/23 03:58:35;;;;;;;5.78;1.85;;;;;;;15.35;100.00;99876.88;5009980;28;20511;-76
2023/03/23 04:01:03;;;;;;;4.25;1.67;;;;;;;15.38;100.00;99876.00;5003428;28;20053;-70
2023/03/23 04:03:29;;;;;;;1.52;1.15;;;;;;;15.40;100.00;99872.78;5008572;28;20049;-73
2023/03/23 04:05:55;;;;;;;4.18;2.45;;;;;;;15.40;100.00;99873.53;4992441;28;20049;-75
2023/03/23 04:08:22;;;;;;;4.32;2.47;;;;;;;15.16;100.00;99860.44;5011620;28;20053;-74
2023/03/23 04:10:48;;;;;;;6.00;1.88;;;;;;;15.55;100.00;99870.28;5012951;28;20518;-75
2023/03/23 04:13:14;;;;;;;3.38;1.85;;;;;;;15.36;100.00;99881.25;5008314;28;20108;-73
2023/03/23 04:15:39;;;;;;;6.60;3.17;;;;;;;15.61;100.00;99871.25;5009275;28;20058;-70
2023/03/23 04:18:05;;;;;;;3.25;1.45;;;;;;;15.44;100.00;99885.38;5008197;28;20050;-75
2023/03/23 04:20:31;;;;;;;3.30;1.52;;;;;;;15.40;100.00;99879.09;5006692;28;20050;-72
2023/03/23 04:22:56;;;;;;;3.28;1.60;;;;;;;15.68;100.00;99882.16;5008471;28;20056;-73
2023/03/23 04:25:22;;;;;;;3.72;1.40;;;;;;;15.80;100.00;99872.97;5008273;28;20165;-75
2023/03/23 04:27:52;;;;;;;6.57;2.13;;;;;;;14.92;100.00;99887.84;5008298;28;20508;-72
2023/03/23 04:30:21;;;;;;;6.70;2.38;;;;;;;14.84;100.00;99878.16;5010391;28;20054;-73
2023/03/23 04:32:50;;;;;;;5.00;2.05;;;;;;;14.13;100.00;99877.91;5003177;28;20060;-72
2023/03/23 04:35:17;;;;;;;4.70;2.33;;;;;;;14.10;100.00;99871.25;5008723;28;20053;-73
2023/03/23 04:37:43;;;;;;;2.38;1.23;;;;;;;13.97;100.00;99887.09;5010428;28;20058;-74
2023/03/23 04:40:14;;;;;;;3.95;2.00;;;;;;;15.58;100.00;99900.81;5008445;28;20064;-74
2023/03/23 04:42:46;;;;;;;5.32;2.72;;;;;;;15.26;100.00;99907.41;5009586;28;20054;-73
2023/03/23 04:45:15;;;;;;;3.13;1.60;;;;;;;14.49;100.00;99900.75;5008489;28;20519;-73
2023/03/23 04:47:41;;;;;;;2.70;1.27;;;;;;;14.30;100.00;99896.94;5005116;28;20045;-72
2023/03/23 04:50:09;;;;;;;5.53;2.20;;;;;;;15.69;100.00;99894.88;5009958;28;20088;-74
2023/03/23 04:52:37;;;;;;;4.05;2.05;;;;;;;15.45;100.00;99903.63;5002325;28;20065;-73
2023/03/23 04:55:05;;;;;;;5.88;2.15;;;;;;;15.57;100.00;99905.59;5008490;28;20057;-74
2023/03/23 04:57:31;;;;;;;2.90;1.73;;;;;;;14.36;100.00;99883.25;5006231;28;20132;-73
2023/03/23 04:59:57;;;;;;;3.85;1.60;;;;;;;14.73;100.00;99891.66;5012421;28;20068;-73
2023/03/23 05:02:22;;;;;;;6.57;1.15;;;;;;;14.32;100.00;99891.72;5008398;28;20503;-72
2023/03/23 05:04:48;;;;;;;1.90;1.00;;;;;;;14.13;100.00;99900.19;5007840;28;20496;-75
2023/03/23 05:07:15;;;;;;;3.03;1.80;;;;;;;15.67;100.00;99908.50;5010360;28;20046;-76
2023/03/23 05:09:41;;;;;;;2.17;1.13;;;;;;;15.01;100.00;99913.03;5009038;28;20085;-74
2023/03/23 05:12:08;;;;;;;7.47;1.42;;;;;;;14.18;100.00;99910.78;5008358;28;20400;-72
2023/03/23 05:14:34;;;;;;;3.60;1.55;;;;;;;15.42;100.00;99923.25;5008814;28;20049;-72
2023/03/23 05:17:00;;;;;;;2.28;1.00;;;;;;;15.73;100.00;99917.84;5009185;28;20543;-76
2023/03/23 05:19:25;;;;;;;5.18;1.30;;;;;;;15.57;100.00;99915.19;5003007;28;20507;-72
2023/03/23 05:21:51;;;;;;;6.40;1.85;;;;;;;15.82;100.00;99909.56;5002135;28;20050;-71
2023/03/23 05:24:17;;;;;;;1.95;1.30;;;;;;;15.73;100.00;99920.63;5003650;28;20499;-78
2023/03/23 05:26:44;;;;;;;1.27;0.68;;;;;;;15.71;100.00;99909.13;5008725;28;20049;-76
2023/03/23 05:29:10;;;;;;;6.10;2.42;;;;;;;15.45;100.00;99909.22;4992397;28;20046;-71
2023/03/23 05:31:37;;;;;;;3.85;1.42;;;;;;;15.55;100.00;99909.31;5008029;28;20086;-74
2023/03/23 05:34:03;;;;;;;4.75;1.75;;;;;;;15.13;100.00;99905.91;5007547;28;20060;-72
2023/03/23 05:36:29;;;;;;;4.00;2.03;;;;;;;15.98;100.00;99918.53;5009254;28;20077;-72
2023/03/23 05:38:54;;;;;;;2.53;1.67;;;;;;;15.74;100.00;99925.75;5005180;28;20049;-72
2023/03/23 05:41:20;;;;;;;4.30;1.95;;;;;;;15.58;100.00;99942.63;5007948;28;20061;-74
2023/03/23 05:43:46;;;;;;;7.00;1.90;;;;;;;15.73;100.00;99934.56;4989941;28;20459;-75
2023/03/23 05:46:11;;;;;;;2.45;1.08;;;;;;;15.18;100.00;99920.03;5021130;28;20085;-72
2023/03/23 05:48:38;;;;;;;2.80;1.35;;;;;;;15.90;100.00;99922.03;5007255;28;20045;-69
2023/03/23 05:51:03;;;;;;;4.25;1.17;;;;;;;15.16;100.00;99916.91;5007308;28;20075;-77
2023/03/23 05:53:30;;;;;;;6.70;2.58;;;;;;;15.62;100.00;99926.56;5007357;28;20832;-72
2023/03/23 05:56:00;;;;;;;3.13;1.27;;;;;;;14.90;100.00;99926.53;5007859;28;20048;-73
2023/03/23 05:58:26;;;;;;;4.57;1.65;;;;;;;15.92;100.00;99925.13;5004036;28;20038;-75
2023/03/23 06:00:51;;;;;;;8.70;2.60;;;;;;;15.49;100.00;99928.59;5010710;28;20062;-74
2023/03/23 06:03:17;;;;;;;1.52;1.17;;;;;;;15.29;100.00;99917.69;5008419;28;20591;-74
2023/03/23 06:05:46;;;;;;;4.53;1.73;;;;;;;14.77;100.00;99919.38;5006092;28;20523;-73
2023/03/23 06:08:12;;;;;;;8.70;2.38;;;;;;;15.57;100.00;99932.72;5007862;28;20431;-74
2023/03/23 06:10:37;;;;;;;4.85;1.65;;;;;;;15.62;100.00;99937.72;5007120;28;20049;-76
2023/03/23 06:13:05;;;;;;;8.45;2.63;;;;;;;15.50;100.00;99935.75;5005291;28;20050;-76
2023/03/23 06:15:32;;;;;;;5.15;1.63;;;;;;;15.18;100.00;99933.97;5008614;28;20579;-76
2023/03/23 06:18:02;;;;;;;5.20;1.92;;;;;;;14.22;100.00;99934.53;5006903;28;20052;-77
2023/03/23 06:20:28;;;;;;;4.25;1.67;;;;;;;14.63;100.00;99939.28;5007756;28;20180;-75
2023/03/23 06:22:55;;;;;;;7.50;1.90;;;;;;;15.04;100.00;99942.78;5008629;28;20131;-75
2023/03/23 06:25:21;;;;;;;5.15;1.67;;;;;;;14.92;100.00;99949.13;5006819;28;20052;-78
2023/03/23 06:27:47;;;;;;;5.47;1.70;;;;;;;15.87;100.00;99945.25;5005816;28;20034;-75
2023/03/23 06:30:14;;;;;;;4.05;1.75;;;;;;;15.14;100.00;99938.88;5005910;28;20424;-74
2023/03/23 06:32:41;;;;;;;6.72;2.35;;;;;;;15.94;100.00;99950.56;5004809;28;20512;-77
2023/03/23 06:35:09;;;;;;;3.05;1.80;;;;;;;15.85;100.00;99954.06;5008250;28;20104;-75
2023/03/23 06:37:36;;;;;;;5.95;1.80;;;;;;;15.97;100.00;99961.63;5007587;28;20141;-75
2023/03/23 06:40:03;;;;;;;7.30;2.38;;;;;;;15.76;100.00;99951.16;4993570;28;20464;-72
2023/03/23 06:42:29;;;;;;;6.32;2.58;;;;;;;15.76;100.00;99951.16;5006846;28;20065;-74
2023/03/23 06:44:57;;;;;;;8.35;1.95;;;;;;;15.75;100.00;99954.41;5006416;28;20527;-76
2023/03/23 06:47:23;;;;;;;3.92;2.00;;;;;;;15.82;100.00;99968.91;5006722;28;20058;-73
2023/03/23 06:49:49;;;;;;;6.15;1.95;;;;;;;15.95;100.00;99949.34;4991836;28;20065;-79
2023/03/23 06:52:14;;;;;;;3.08;1.52;;;;;;;16.24;100.00;99938.72;5007898;28;20077;-74
2023/03/23 06:54:40;;;;;;;7.10;2.42;;;;;;;16.05;100.00;99948.19;5009906;28;20077;-75
2023/03/23 06:57:07;;;;;;;7.72;2.38;;;;;;;15.84;100.00;99951.72;5007205;28;20507;-75
2023/03/23 06:59:32;;;;;;;7.00;1.58;;;;;;;15.30;100.00;99946.34;5009605;28;20439;-75
2023/03/23 07:01:58;;;;;;;5.63;1.65;;;;;;;15.25;100.00;99960.81;4992688;28;20057;-79
2023/03/23 07:04:23;;;;;;;5.30;2.05;;;;;;;15.06;100.00;99948.66;5008460;28;20050;-75
2023/03/23 07:06:49;;;;;;;4.50;1.67;;;;;;;15.93;100.00;99965.75;5008887;28;20042;-74
2023/03/23 07:09:15;;;;;;;6.07;1.42;;;;;;;15.17;100.00;99965.06;5009160;28;20393;-76
2023/03/23 07:11:41;;;;;;;7.88;2.30;;;;;;;15.19;100.00;99971.75;5023100;28;20046;-75
2023/03/23 07:14:06;;;;;;;3.75;1.70;;;;;;;15.18;100.00;99967.41;5007077;28;20504;-75
2023/03/23 07:16:32;;;;;;;8.52;2.78;;;;;;;15.18;100.00;99956.25;5006055;28;20065;-78
2023/03/23 07:18:58;;;;;;;4.78;2.03;;;;;;;15.07;100.00;99978.13;5012273;28;20057;-74
2023/03/23 07:21:24;;;;;;;4.32;1.77;;;;;;;15.31;100.00;99965.41;5009039;28;20088;-74
2023/03/23 07:23:49;;;;;;;7.53;2.22;;;;;;;15.27;100.00;99978.69;5010835;28;20115;-75
2023/03/23 07:26:15;;;;;;;8.80;2.08;;;;;;;14.98;100.00;99986.34;5011517;28;20058;-75
2023/03/23 07:28:40;;;;;;;9.00;2.28;;;;;;;15.22;100.00;99987.59;5011637;28;20046;-75
2023/03/23 07:31:08;;;;;;;4.88;1.85;;;;;;;14.81;100.00;99978.50;4993921;28;20108;-71
2023/03/23 07:33:35;;;;;;;4.63;1.52;;;;;;;15.31;100.00;99982.13;5006300;28;20086;-77
2023/03/23 07:36:02;;;;;;;7.43;2.20;;;;;;;15.83;100.00;99994.78;5007048;28;20046;-75
2023/03/23 07:38:29;;;;;;;4.20;1.60;;;;;;;15.37;100.00;99987.94;5008400;28;20053;-78
2023/03/23 07:40:56;;;;;;;5.63;2.30;;;;;;;15.25;100.00;99989.47;5007477;28;20093;-77
2023/03/23 07:43:22;;;;;;;7.38;1.85;;;;;;;15.28;100.00;99979.44;5010708;28;20046;-77
2023/03/23 07:45:48;;;;;;;10.65;2.40;;;;;;;15.00;100.00;99988.69;5012324;28;20052;-75
2023/03/23 07:48:13;;;;;;;6.75;2.60;;;;;;;15.17;100.00;99988.16;5009979;28;20129;-75
2023/03/23 07:50:40;;;;;;;4.38;1.42;;;;;;;15.44;100.00;99979.34;5012433;28;20101;-77
2023/03/23 07:53:05;;;;;;;3.17;1.77;;;;;;;15.35;100.00;99980.00;5012594;28;20056;-76
2023/03/23 07:55:31;;;;;;;12.77;2.97;;;;;;;14.69;100.00;99994.00;5014231;28;20049;-73
2023/03/23 07:57:57;;;;;;;9.80;2.22;;;;;;;15.36;100.00;100011.47;5011790;28;20045;-71
2023/03/23 08:00:23;;;;;;;6.63;2.13;;;;;;;15.41;100.00;99986.63;5010645;28;20108;-76
2023/03/23 08:02:52;;;;;;;3.78;1.40;;;;;;;15.48;100.00;100003.09;5009951;28;20096;-74
2023/03/23 08:05:18;;;;;;;1.20;0.65;;;;;;;14.95;100.00;100003.19;5008668;28;20049;-73
2023/03/23 08:07:45;;;;;;;7.22;2.65;;;;;;;15.13;100.00;100015.31;5010764;28;20124;-75
2023/03/23 08:10:12;;;;;;;7.63;1.58;;;;;;;15.39;100.00;100008.56;5006083;28;20062;-71
2023/03/23 08:12:39;;;;;;;6.95;1.67;;;;;;;15.44;100.00;99991.28;5011336;28;20053;-78
2023/03/23 08:15:06;;;;;;;3.55;1.52;;;;;;;15.43;100.00;100000.88;5007790;28;20099;-72
2023/03/23 08:17:32;;;;;;;6.30;1.75;;;;;;;15.53;100.00;99983.00;5009466;28;20051;-72
2023/03/23 08:19:58;;;;;;;10.38;1.80;;;;;;;15.35;100.00;100002.31;5010305;28;20092;-71
2023/03/23 08:22:24;;;;;;;8.32;2.08;;;;;;;15.55;100.00;100001.31;5010226;28;20050;-71
2023/03/23 08:24:50;;;;;;;4.88;1.50;;;;;;;15.65;100.00;100008.56;5010080;28;20062;-73
2023/03/23 08:27:15;;;;;;;4.43;1.88;;;;;;;15.68;100.00;100010.44;5007679;28;20116;-70
2023/03/23 08:29:43;;;;;;;8.23;2.13;;;;;;;15.07;100.00;99999.63;5006129;28;20488;-71
2023/03/23 08:32:09;;;;;;;9.23;2.88;;;;;;;14.99;100.00;100003.84;5006813;28;20069;-70
2023/03/23 08:34:34;;;;;;;3.92;1.52;;;;;;;15.37;100.00;100016.63;5008094;28;20188;-75
2023/03/23 08:37:00;;;;;;;5.00;1.40;;;;;;;15.08;100.00;100003.94;4991771;28;20450;-72
2023/03/23 08:39:25;;;;;;;5.35;1.27;;;;;;;15.28;100.00;100002.53;5007827;28;20448;-71
2023/03/23 08:41:51;;;;;;;5.22;1.63;;;;;;;15.31;100.00;100012.00;5008426;28;20058;-73
2023/03/23 08:44:17;;;;;;;3.85;1.45;;;;;;;15.48;100.00;100007.13;5010559;28;20065;-73
2023/03/23 08:46:42;;;;;;;5.72;2.13;;;;;;;16.33;100.00;99994.63;5026891;28;20618;-72
2023/03/23 08:49:08;;;;;;;6.03;1.55;;;;;;;16.77;100.00;100018.56;5010597;28;20117;-75
2023/03/23 08:51:33;;;;;;;7.13;2.05;;;;;;;16.72;100.00;100010.75;5007112;28;20084;-73
2023/03/23 08:53:59;;;;;;;5.22;1.13;;;;;;;16.79;100.00;100016.09;5005482;28;20076;-76
2023/03/23 08:56:25;;;;;;;4.50;1.60;;;;;;;16.96;100.00;100035.00;5005053;28;20084;-74
2023/03/23 08:58:51;;;;;;;7.20;1.40;;;;;;;16.97;100.00;100007.81;5010847;28;20069;-74
2023/03/23 09:01:17;;;;;;;6.72;1.73;;;;;;;16.95;100.00;100019.47;5007234;28;20049;-69
2023/03/23 09:03:42;;;;;;;12.20;2.00;;;;;;;16.62;100.00;100051.03;5006599;28;20613;-72
2023/03/23 09:06:09;;;;;;;5.68;1.67;;;;;;;16.75;100.00;100016.22;5006114;28;20046;-74
2023/03/23 09:08:35;;;;;;;3.85;1.35;;;;;;;16.64;100.00;100017.84;5005900;28;20046;-72
2023/03/23 09:11:09;;;;;;;5.85;1.45;;;;;;;16.72;100.00;100021.94;5004293;28;20413;-70
2023/03/23 09:13:36;;;;;;;4.00;1.25;;;;;;;16.42;100.00;100033.78;5007641;28;20045;-71
2023/03/23 09:16:03;;;;;;;2.58;1.15;;;;;;;16.27;100.00;100027.16;4948510;28;1108757;-73
2023/03/23 09:18:32;;;;;;;5.30;1.77;;;;;;;15.16;100.00;100010.88;5004546;28;20416;-71
2023/03/23 09:20:58;;;;;;;3.67;1.27;;;;;;;16.30;100.00;100023.47;5005115;28;20765;-71
2023/03/23 09:23:24;;;;;;;3.95;1.70;;;;;;;16.21;100.00;100028.94;5011333;28;20416;-73
2023/03/23 09:25:51;;;;;;;6.10;1.70;;;;;;;16.26;100.00;100031.19;5007553;28;20054;-74
2023/03/23 09:28:17;;;;;;;4.63;1.50;;;;;;;16.23;100.00;100026.50;5007967;28;20050;-73
2023/03/23 09:30:44;;;;;;;7.53;2.42;;;;;;;14.94;100.00;100029.47;4993437;28;20153;-72
2023/03/23 09:33:09;;;;;;;6.00;1.83;;;;;;;14.99;100.00;100051.97;5008300;28;20124;-70
2023/03/23 09:35:37;;;;;;;6.82;1.60;;;;;;;15.11;100.00;100047.66;5008298;28;20500;-71
2023/03/23 09:38:03;;;;;;;1.92;0.85;;;;;;;15.23;100.00;100041.31;5001357;28;20096;-74
2023/03/23 09:40:41;;;;;;;6.22;1.52;;;;;;;15.38;100.00;100053.59;5004221;28;20516;-75
2023/03/23 09:43:22;;;;;;;4.50;1.73;;;;;;;16.34;100.00;100058.41;5007051;28;20440;-73
2023/03/23 09:46:19;;;;;;;6.32;1.30;;;;;;;16.16;100.00;100061.00;5005518;28;20041;-70
2023/03/23 09:48:51;;;;;;;0.85;0.73;;;;;;;16.24;100.00;100092.25;5008640;28;20054;-74
2023/03/23 09:51:26;;;;;;;3.97;1.20;;;;;;;16.20;100.00;100123.06;5004834;28;20081;-72
2023/03/23 09:53:57;;;;;;;1.58;0.90;;;;;;;15.15;100.00;100124.34;5008912;28;20058;-72
2023/03/23 09:56:27;;;;;;;4.88;1.60;;;;;;;15.18;100.00;100117.88;5002824;28;20046;-74
2023/03/23 09:59:20;;;;;;;0.55;0.55;;;;;;;14.36;100.00;100128.94;5004691;28;20104;-74
2023/03/23 10:01:52;;;;;;;6.03;1.25;;;;;;;14.10;100.00;100131.94;5021652;28;20096;-76
2023/03/23 10:04:33;;;;;;;3.05;1.00;;;;;;;13.79;100.00;100131.50;5004237;28;20079;-76
2023/03/23 10:07:08;;;;;;;8.25;1.27;;;;;;;13.75;100.00;100127.22;5003451;28;20487;-71
2023/03/23 10:09:33;;;;;;;;;;;;;;;13.36;100.00;100119.78;5005578;28;20133;-72
2023/03/23 10:12:27;;;;;;;3.28;0.73;;;;;;;13.38;100.00;100136.81;5003131;28;20016;-71
2023/03/23 10:15:17;;;;;;;1.52;0.43;;;;;;;13.34;100.00;100119.44;5003897;28;20053;-73
2023/03/23 10:18:02;;;;;;;5.05;1.25;;;;;;;13.23;100.00;100127.19;5007516;28;20108;-71
2023/03/23 10:20:52;;;;;;;0.95;0.93;;;;;;;13.16;100.00;100130.13;4990321;28;20057;-72
2023/03/23 10:23:18;;;;;;;2.17;0.73;;;;;;;13.21;100.00;100129.63;5002695;28;20112;-71
2023/03/23 10:26:06;;;;;;;4.60;1.02;;;;;;;13.02;100.00;100140.75;5005236;28;20046;-72
2023/03/23 10:28:45;;;;;;;4.97;0.90;;;;;;;13.12;100.00;100145.31;4990498;28;20049;-71
2023/03/23 10:31:21;;;;;;;4.22;1.30;;;;;;;12.95;100.00;100152.75;5001198;28;20865;-71
2023/03/23 10:33:54;;;;;;;3.50;1.30;;;;;;;12.80;100.00;100146.69;5001275;28;20053;-71
2023/03/23 10:36:25;;;;;;;0.88;0.88;;;;;;;13.44;100.00;100145.41;5003441;28;20046;-72
2023/03/23 10:39:07;;;;;;;4.90;0.93;;;;;;;12.18;100.00;100145.81;5003085;28;20052;-70
2023/03/23 10:41:33;;;;;;;6.70;1.48;;;;;;;13.09;100.00;100154.50;5004101;28;20597;-74
2023/03/23 10:43:59;;;;;;;1.98;1.23;;;;;;;13.00;100.00;100155.06;5006766;28;20054;-73
2023/03/23 10:46:40;;;;;;;6.95;1.48;;;;;;;12.17;100.00;100156.16;5004680;28;20049;-73
2023/03/23 10:49:12;;;;;;;3.08;1.38;;;;;;;13.71;100.00;100148.78;5004599;28;20052;-72
2023/03/23 10:51:44;;;;;;;5.32;1.63;;;;;;;13.63;100.00;100159.25;5002368;28;20060;-70
2023/03/23 10:54:10;;;;;;;3.15;1.05;;;;;;;13.62;100.00;100160.47;5000834;28;20054;-71
2023/03/23 10:56:46;;;;;;;3.35;1.65;;;;;;;13.64;100.00;100160.84;5006007;28;20410;-71
2023/03/23 10:59:22;;;;;;;0.98;0.88;;;;;;;13.73;100.00;100163.81;5003925;28;20049;-74
2023/03/23 11:01:54;;;;;;;2.35;1.25;;;;;;;12.21;100.00;100153.31;5003429;28;20417;-71
2023/03/23 11:04:21;;;;;;;7.70;1.45;;;;;;;12.30;100.00;100172.97;5000250;28;20516;-74
2023/03/23 11:06:52;;;;;;;5.50;2.10;;;;;;;12.47;100.00;100160.78;5020002;28;20049;-70
2023/03/23 11:09:20;;;;;;;1.85;0.90;;;;;;;13.44;100.00;100150.97;4987245;28;20423;-72
2023/03/23 11:11:50;;;;;;;4.00;1.05;;;;;;;13.57;100.00;100154.66;5003749;28;21757;-70
2023/03/23 11:14:19;;;;;;;1.10;0.90;;;;;;;12.27;100.00;100159.94;5001351;28;20046;-73
2023/03/23 11:16:54;;;;;;;7.03;1.33;;;;;;;12.43;100.00;100180.25;5004394;28;20041;-74
2023/03/23 11:19:26;;;;;;;1.90;1.27;;;;;;;13.03;100.00;100171.66;5004543;28;20053;-70
2023/03/23 11:21:54;;;;;;;4.88;1.15;;;;;;;12.23;100.00;100164.78;5001814;28;20077;-73
2023/03/23 11:24:26;;;;;;;2.75;1.08;;;;;;;11.92;100.00;100169.59;5002994;28;20042;-77
2023/03/23 11:26:56;;;;;;;8.55;2.92;;;;;;;12.09;100.00;100167.78;4994567;28;21311;-73
2023/03/23 11:29:25;;;;;;;3.88;1.40;;;;;;;13.29;100.00;100167.16;4999557;28;20504;-75
2023/03/23 11:32:05;;;;;;;4.88;1.85;;;;;;;13.15;100.00;100167.44;4995362;28;20065;-73